createdAt,value
2022-12-16T00:01:20.760Z,-19.76
2022-12-16T00:03:52.201Z,-19.77
2022-12-16T00:06:26.360Z,-19.78
2022-12-16T00:08:55.204Z,-19.76
2022-12-16T00:11:24.109Z,-19.75
2022-12-16T00:13:53.527Z,-19.72
2022-12-16T00:16:24.096Z,-19.72
2022-12-16T00:18:53.201Z,-19.72
2022-12-16T00:21:22.239Z,-19.72
2022-12-16T00:23:51.151Z,-19.70
2022-12-16T00:26:19.992Z,-19.67
2022-12-16T00:28:48.784Z,-19.67
2022-12-16T00:31:17.917Z,-19.66
2022-12-16T00:33:46.761Z,-19.62
2022-12-16T00:36:15.831Z,-19.58
2022-12-16T00:38:44.667Z,-19.54
2022-12-16T00:41:13.441Z,-19.51
2022-12-16T00:43:42.182Z,-19.47
2022-12-16T00:46:11.229Z,-19.45
2022-12-16T00:48:40.107Z,-19.43
2022-12-16T00:51:08.864Z,-19.45
2022-12-16T00:53:38.885Z,-19.45
2022-12-16T00:56:13.124Z,-19.45
2022-12-16T00:58:42.393Z,-19.45
2022-12-16T01:01:12.340Z,-19.40
2022-12-16T01:03:42.044Z,-19.37
2022-12-16T01:06:18.624Z,-19.36
2022-12-16T01:08:49.147Z,-19.34
2022-12-16T01:11:20.683Z,-19.31
2022-12-16T01:13:55.121Z,-19.28
2022-12-16T01:16:24.296Z,-19.30
2022-12-16T01:18:54.055Z,-19.30
2022-12-16T01:21:24.253Z,-19.31
2022-12-16T01:23:54.997Z,-19.30
2022-12-16T01:26:24.085Z,-19.35
2022-12-16T01:28:52.889Z,-19.36
2022-12-16T01:31:25.031Z,-19.43
2022-12-16T01:33:53.963Z,-19.38
2022-12-16T01:36:23.079Z,-19.38
2022-12-16T01:38:52.096Z,-19.37
2022-12-16T01:41:21.031Z,-19.35
2022-12-16T01:43:50.121Z,-19.32
2022-12-16T01:46:25.602Z,-19.32
2022-12-16T01:49:06.724Z,-19.32
2022-12-16T01:51:48.986Z,-19.31
2022-12-16T01:57:23.100Z,-19.31
2022-12-16T01:59:54.886Z,-19.27
2022-12-16T02:02:25.369Z,-19.23
2022-12-16T02:05:14.004Z,-19.19
2022-12-16T02:07:42.841Z,-19.14
2022-12-16T02:13:25.453Z,-19.10
2022-12-16T02:16:43.629Z,-19.02
2022-12-16T02:20:07.827Z,-19.01
2022-12-16T02:22:45.062Z,-19.00
2022-12-16T02:25:56.070Z,-19.00
2022-12-16T02:29:04.894Z,-19.05
2022-12-16T02:31:55.508Z,-19.08
2022-12-16T02:34:52.601Z,-19.03
2022-12-16T02:37:33.029Z,-18.98
2022-12-16T02:40:06.039Z,-18.95
2022-12-16T02:42:52.047Z,-18.86
2022-12-16T02:48:12.458Z,-18.76
2022-12-16T02:50:46.413Z,-18.75
2022-12-16T02:53:15.416Z,-18.71
2022-12-16T02:56:11.007Z,-18.58
2022-12-16T02:58:48.838Z,-18.46
2022-12-16T03:04:21.487Z,-18.32
2022-12-16T03:06:53.892Z,-18.26
2022-12-16T03:09:29.696Z,-18.22
2022-12-16T03:12:00.583Z,-18.14
2022-12-16T03:14:33.775Z,-18.14
2022-12-16T03:20:08.157Z,-17.98
2022-12-16T03:22:39.806Z,-17.94
2022-12-16T03:25:09.106Z,-17.96
2022-12-16T03:27:50.477Z,-17.98
2022-12-16T03:30:25.668Z,-17.96
2022-12-16T03:33:04.451Z,-17.93
2022-12-16T03:38:28.104Z,-17.92
2022-12-16T03:40:58.895Z,-17.84
2022-12-16T03:43:29.138Z,-17.75
2022-12-16T03:46:05.383Z,-17.67
2022-12-16T03:48:35.069Z,-17.59
2022-12-16T03:53:50.241Z,-17.52
2022-12-16T03:56:19.247Z,-17.40
2022-12-16T03:58:48.128Z,-17.25
2022-12-16T04:01:18.295Z,-17.16
2022-12-16T04:03:47.662Z,-17.11
2022-12-16T04:06:19.248Z,-17.07
2022-12-16T04:11:53.691Z,-17.02
2022-12-16T04:14:41.202Z,-16.99
2022-12-16T04:17:32.089Z,-16.99
2022-12-16T04:20:19.499Z,-16.97
2022-12-16T04:23:07.018Z,-16.89
2022-12-16T04:28:24.833Z,-16.86
2022-12-16T04:30:54.544Z,-16.93
2022-12-16T04:33:43.065Z,-16.95
2022-12-16T04:36:30.622Z,-16.95
2022-12-16T04:39:18.381Z,-16.93
2022-12-16T04:45:10.315Z,-16.84
2022-12-16T04:47:57.825Z,-16.73
2022-12-16T04:50:45.034Z,-16.62
2022-12-16T04:53:32.670Z,-16.48
2022-12-16T04:56:20.385Z,-16.44
2022-12-16T05:02:13.104Z,-16.49
2022-12-16T05:05:01.052Z,-16.57
2022-12-16T05:07:49.559Z,-16.45
2022-12-16T05:10:41.488Z,-16.29
2022-12-16T05:13:28.817Z,-16.20
2022-12-16T05:16:16.398Z,-16.13
2022-12-16T05:19:03.593Z,-16.10
2022-12-16T05:21:50.902Z,-16.01
2022-12-16T05:24:38.388Z,-16.04
2022-12-16T05:27:26.193Z,-16.10
2022-12-16T05:33:17.812Z,-16.14
2022-12-16T05:36:05.088Z,-16.10
2022-12-16T05:38:52.409Z,-16.08
2022-12-16T05:41:40.301Z,-16.08
2022-12-16T05:44:27.683Z,-16.17
2022-12-16T05:47:15.062Z,-16.24
2022-12-16T05:50:02.482Z,-16.24
2022-12-16T05:52:50.665Z,-16.24
2022-12-16T05:55:38.060Z,-16.26
2022-12-16T05:58:25.551Z,-16.20
2022-12-16T06:01:13.435Z,-16.12
2022-12-16T06:04:01.192Z,-16.06
2022-12-16T06:06:48.627Z,-16.05
2022-12-16T06:09:56.598Z,-16.08
2022-12-16T06:12:44.357Z,-16.15
2022-12-16T06:15:31.977Z,-16.21
2022-12-16T06:18:19.777Z,-16.18
2022-12-16T06:21:07.356Z,-16.12
2022-12-16T06:23:55.790Z,-16.11
2022-12-16T06:26:43.103Z,-16.13
2022-12-16T06:29:30.498Z,-16.10
2022-12-16T06:32:18.109Z,-16.14
2022-12-16T06:35:05.464Z,-16.24
2022-12-16T06:37:52.852Z,-16.21
2022-12-16T06:40:40.379Z,-16.14
2022-12-16T06:43:27.752Z,-16.13
2022-12-16T06:46:15.246Z,-16.07
2022-12-16T06:49:02.852Z,-16.07
2022-12-16T06:51:51.675Z,-16.13
2022-12-16T06:54:39.156Z,-16.16
2022-12-16T06:57:26.308Z,-16.13
2022-12-16T07:00:13.904Z,-16.14
2022-12-16T07:03:01.686Z,-16.16
2022-12-16T07:05:48.926Z,-16.20
2022-12-16T07:08:36.401Z,-16.22
2022-12-16T07:11:24.020Z,-16.23
2022-12-16T07:14:11.606Z,-16.22
2022-12-16T07:16:58.961Z,-16.24
2022-12-16T07:19:46.394Z,-16.23
2022-12-16T07:22:34.125Z,-16.22
2022-12-16T07:25:21.599Z,-16.24
2022-12-16T07:28:13.824Z,-16.25
2022-12-16T07:31:03.546Z,-16.26
2022-12-16T07:33:50.941Z,-16.27
2022-12-16T07:36:38.698Z,-16.27
2022-12-16T07:39:26.102Z,-16.27
2022-12-16T07:42:13.491Z,-16.29
2022-12-16T07:45:01.016Z,-16.31
2022-12-16T07:47:48.430Z,-16.28
2022-12-16T07:50:35.857Z,-16.25
2022-12-16T07:53:25.631Z,-16.24
2022-12-16T07:56:17.174Z,-16.27
2022-12-16T07:59:04.635Z,-16.23
2022-12-16T08:01:52.869Z,-16.29
2022-12-16T08:04:43.012Z,-16.35
2022-12-16T08:07:30.379Z,-16.38
2022-12-16T08:10:17.549Z,-16.36
2022-12-16T08:13:05.169Z,-16.36
2022-12-16T08:15:52.690Z,-16.38
2022-12-16T08:18:40.839Z,-16.38
2022-12-16T08:21:28.315Z,-16.45
2022-12-16T08:24:15.739Z,-16.37
2022-12-16T08:27:03.052Z,-16.38
2022-12-16T08:29:50.530Z,-16.39
2022-12-16T08:32:38.303Z,-16.39
2022-12-16T08:35:25.689Z,-16.39
2022-12-16T08:38:16.776Z,-16.42
2022-12-16T08:41:05.264Z,-16.44
2022-12-16T08:43:54.317Z,-16.43
2022-12-16T08:46:42.214Z,-16.41
2022-12-16T08:49:29.673Z,-16.42
2022-12-16T08:52:17.045Z,-16.45
2022-12-16T08:55:04.583Z,-16.44
2022-12-16T08:57:51.938Z,-16.43
2022-12-16T09:00:39.620Z,-16.42
2022-12-16T09:03:27.187Z,-16.42
2022-12-16T09:06:18.439Z,-16.50
2022-12-16T09:09:06.002Z,-16.46
2022-12-16T09:11:53.509Z,-16.43
2022-12-16T09:14:40.771Z,-16.42
2022-12-16T09:17:28.161Z,-16.43
2022-12-16T09:20:15.515Z,-16.41
2022-12-16T09:23:02.759Z,-16.45
2022-12-16T09:25:50.167Z,-16.44
2022-12-16T09:28:38.317Z,-16.45
2022-12-16T09:31:25.754Z,-16.42
2022-12-16T09:34:13.102Z,-16.41
2022-12-16T09:37:00.965Z,-16.41
2022-12-16T09:40:05.108Z,-16.52
2022-12-16T09:43:31.656Z,-16.40
2022-12-16T09:46:37.415Z,-16.43
2022-12-16T09:49:55.103Z,-16.43
2022-12-16T09:52:45.330Z,-16.41
2022-12-16T09:55:42.815Z,-16.42
2022-12-16T09:58:32.950Z,-16.46
2022-12-16T10:01:22.140Z,-16.40
2022-12-16T10:04:09.835Z,-16.40
2022-12-16T10:07:02.424Z,-16.42
2022-12-16T10:09:49.864Z,-16.44
2022-12-16T10:13:02.882Z,-16.43
2022-12-16T10:15:58.822Z,-16.43
2022-12-16T10:19:00.718Z,-16.37
2022-12-16T10:22:11.123Z,-16.35
2022-12-16T10:25:10.347Z,-16.32
2022-12-16T10:28:28.657Z,-16.36
2022-12-16T10:31:15.635Z,-16.36
2022-12-16T10:34:06.837Z,-16.36
2022-12-16T10:36:56.664Z,-16.34
2022-12-16T10:40:06.843Z,-16.32
2022-12-16T10:43:01.799Z,-16.33
2022-12-16T10:46:13.287Z,-16.35
2022-12-16T10:49:00.751Z,-16.35
2022-12-16T10:51:48.556Z,-16.36
2022-12-16T10:55:03.691Z,-16.34
2022-12-16T10:58:17.808Z,-16.33
2022-12-16T11:01:05.697Z,-16.32
2022-12-16T11:03:58.591Z,-16.33
2022-12-16T11:07:00.790Z,-16.34
2022-12-16T11:09:52.520Z,-16.34
2022-12-16T11:12:45.769Z,-16.34
2022-12-16T11:15:51.116Z,-16.30
2022-12-16T11:18:41.297Z,-16.31
2022-12-16T11:21:32.726Z,-16.30
2022-12-16T11:24:31.881Z,-16.29
2022-12-16T11:27:22.824Z,-16.22
2022-12-16T11:30:12.970Z,-16.19
2022-12-16T11:33:13.395Z,-16.17
2022-12-16T11:36:05.842Z,-16.15
2022-12-16T11:39:09.971Z,-16.14
2022-12-16T11:42:01.216Z,-16.11
2022-12-16T11:44:52.747Z,-16.10
2022-12-16T11:47:57.754Z,-16.09
2022-12-16T11:50:47.825Z,-16.05
2022-12-16T11:54:13.957Z,-16.04
2022-12-16T11:57:04.301Z,-16.04
2022-12-16T12:00:12.119Z,-16.03
2022-12-16T12:03:18.141Z,-16.03
2022-12-16T12:06:16.974Z,-16.01
2022-12-16T12:09:19.537Z,-16.00
2022-12-16T12:12:13.243Z,-16.00
2022-12-16T12:15:47.504Z,-16.00
2022-12-16T12:18:37.520Z,-15.96
2022-12-16T12:21:43.666Z,-15.94
2022-12-16T12:24:34.317Z,-15.94
2022-12-16T12:27:36.042Z,-15.95
2022-12-16T12:30:30.981Z,-15.98
2022-12-16T12:33:20.805Z,-15.98
2022-12-16T12:36:11.279Z,-16.00
2022-12-16T12:39:22.553Z,-16.00
2022-12-16T12:42:31.505Z,-15.97
2022-12-16T12:45:18.989Z,-15.96
2022-12-16T12:48:23.163Z,-15.97
2022-12-16T12:51:23.930Z,-15.97
2022-12-16T12:54:36.460Z,-16.02
2022-12-16T12:57:25.317Z,-16.00
2022-12-16T13:00:20.936Z,-15.99
2022-12-16T13:03:30.040Z,-15.97
2022-12-16T13:06:18.482Z,-15.95
2022-12-16T13:09:08.986Z,-15.92
2022-12-16T13:11:57.868Z,-15.92
2022-12-16T13:14:53.035Z,-15.91
2022-12-16T13:17:42.923Z,-15.89
2022-12-16T13:20:52.099Z,-15.83
2022-12-16T13:24:10.135Z,-15.88
2022-12-16T13:27:20.743Z,-15.84
2022-12-16T13:30:29.923Z,-15.85
2022-12-16T13:33:22.301Z,-15.82
2022-12-16T13:36:17.834Z,-15.82
2022-12-16T13:39:10.308Z,-15.78
2022-12-16T13:41:57.820Z,-15.78
2022-12-16T13:45:03.664Z,-15.78
2022-12-16T13:47:53.052Z,-15.78
2022-12-16T13:50:57.295Z,-15.79
2022-12-16T13:53:51.133Z,-15.75
2022-12-16T13:56:45.657Z,-15.74
2022-12-16T13:59:52.211Z,-15.74
2022-12-16T14:02:50.762Z,-15.73
2022-12-16T14:05:44.277Z,-15.73
2022-12-16T14:08:40.304Z,-15.72
2022-12-16T14:11:34.709Z,-15.71
2022-12-16T14:14:45.106Z,-15.72
2022-12-16T14:17:45.122Z,-15.72
2022-12-16T14:20:48.747Z,-15.78
2022-12-16T14:23:58.664Z,-15.75
2022-12-16T14:26:48.017Z,-15.75
2022-12-16T14:29:50.659Z,-15.77
2022-12-16T14:32:52.916Z,-15.80
2022-12-16T14:35:43.242Z,-15.83
2022-12-16T14:38:50.562Z,-15.81
2022-12-16T14:41:41.297Z,-15.77
2022-12-16T14:44:43.480Z,-15.74
2022-12-16T14:47:41.635Z,-15.75
2022-12-16T14:50:40.786Z,-15.76
2022-12-16T14:53:35.647Z,-15.75
2022-12-16T14:56:43.814Z,-15.77
2022-12-16T14:59:39.324Z,-15.82
2022-12-16T15:02:44.956Z,-15.86
2022-12-16T15:05:33.144Z,-15.91
2022-12-16T15:08:20.680Z,-15.94
2022-12-16T15:11:08.098Z,-15.96
2022-12-16T15:14:00.349Z,-16.03
2022-12-16T15:16:55.417Z,-15.97
2022-12-16T15:19:44.631Z,-15.95
2022-12-16T15:22:36.422Z,-15.91
2022-12-16T15:25:24.747Z,-15.90
2022-12-16T15:28:16.261Z,-15.84
2022-12-16T15:31:05.916Z,-15.79
2022-12-16T15:33:58.547Z,-15.75
2022-12-16T15:36:55.673Z,-15.72
2022-12-16T15:40:00.117Z,-15.68
2022-12-16T15:42:50.142Z,-15.65
2022-12-16T15:45:46.195Z,-15.62
2022-12-16T15:48:55.093Z,-15.60
2022-12-16T15:51:51.045Z,-15.59
2022-12-16T15:54:39.673Z,-15.58
2022-12-16T15:57:49.958Z,-15.63
2022-12-16T16:00:45.803Z,-15.70
2022-12-16T16:03:48.258Z,-15.76
2022-12-16T16:06:44.296Z,-15.85
2022-12-16T16:09:43.038Z,-15.93
2022-12-16T16:12:31.628Z,-16.01
2022-12-16T16:15:19.018Z,-16.04
2022-12-16T16:18:09.738Z,-16.04
2022-12-16T16:20:57.000Z,-16.03
2022-12-16T16:23:44.372Z,-16.05
2022-12-16T16:26:34.253Z,-16.09
2022-12-16T16:29:21.619Z,-16.02
2022-12-16T16:32:08.928Z,-15.97
2022-12-16T16:34:56.028Z,-16.00
2022-12-16T16:37:43.554Z,-15.97
2022-12-16T16:40:54.375Z,-15.94
2022-12-16T16:43:42.249Z,-15.93
2022-12-16T16:46:53.132Z,-15.91
2022-12-16T16:49:48.701Z,-15.87
2022-12-16T16:52:41.461Z,-15.85
2022-12-16T16:55:35.965Z,-15.82
2022-12-16T16:58:35.788Z,-15.83
2022-12-16T17:01:24.298Z,-15.83
2022-12-16T17:04:11.922Z,-15.84
2022-12-16T17:06:59.331Z,-15.87
2022-12-16T17:09:46.623Z,-15.85
2022-12-16T17:12:43.793Z,-15.82
2022-12-16T17:15:43.345Z,-15.80
2022-12-16T17:18:30.680Z,-15.83
2022-12-16T17:21:18.251Z,-15.83
2022-12-16T17:24:05.663Z,-15.83
2022-12-16T17:26:52.910Z,-15.85
2022-12-16T17:29:43.247Z,-15.86
2022-12-16T17:32:31.308Z,-15.85
2022-12-16T17:35:18.661Z,-15.88
2022-12-16T17:38:05.999Z,-15.89
2022-12-16T17:40:53.227Z,-15.91
2022-12-16T17:43:40.663Z,-15.90
2022-12-16T17:46:30.192Z,-15.91
2022-12-16T17:49:18.088Z,-15.90
2022-12-16T17:52:05.444Z,-15.92
2022-12-16T17:54:52.783Z,-15.91
2022-12-16T17:57:40.420Z,-15.89
2022-12-16T18:00:29.201Z,-15.86
2022-12-16T18:03:17.055Z,-15.85
2022-12-16T18:06:04.538Z,-15.83
2022-12-16T18:08:52.444Z,-15.82
2022-12-16T18:11:39.801Z,-15.80
2022-12-16T18:14:27.244Z,-15.77
2022-12-16T18:17:14.674Z,-15.77
2022-12-16T18:20:02.229Z,-15.80
2022-12-16T18:22:50.574Z,-15.81
2022-12-16T18:25:38.843Z,-15.88
2022-12-16T18:28:26.211Z,-15.88
2022-12-16T18:31:13.555Z,-15.87
2022-12-16T18:34:01.098Z,-15.84
2022-12-16T18:36:48.533Z,-15.82
2022-12-16T18:39:35.807Z,-15.79
2022-12-16T18:42:23.226Z,-15.82
2022-12-16T18:45:10.475Z,-15.83
2022-12-16T18:47:57.759Z,-15.87
2022-12-16T18:50:45.094Z,-15.89
2022-12-16T18:53:32.660Z,-15.88
2022-12-16T18:56:22.330Z,-15.90
2022-12-16T18:59:09.878Z,-15.92
2022-12-16T19:01:59.180Z,-15.90
2022-12-16T19:04:46.641Z,-15.92
2022-12-16T19:07:34.252Z,-15.93
2022-12-16T19:10:21.502Z,-15.93
2022-12-16T19:13:08.810Z,-15.95
2022-12-16T19:15:56.072Z,-15.99
2022-12-16T19:18:43.578Z,-16.06
2022-12-16T19:21:30.994Z,-16.14
2022-12-16T19:24:18.679Z,-16.14
2022-12-16T19:27:10.502Z,-16.20
2022-12-16T19:30:00.791Z,-16.28
2022-12-16T19:32:50.207Z,-16.33
2022-12-16T19:35:37.639Z,-16.35
2022-12-16T19:38:24.963Z,-16.36
2022-12-16T19:41:13.356Z,-16.38
2022-12-16T19:44:05.791Z,-16.40
2022-12-16T19:46:56.214Z,-16.41
2022-12-16T19:49:44.652Z,-16.44
2022-12-16T19:52:32.421Z,-16.49
2022-12-16T19:55:19.907Z,-16.54
2022-12-16T19:58:07.371Z,-16.58
2022-12-16T20:00:55.075Z,-16.63
2022-12-16T20:03:44.853Z,-16.67
2022-12-16T20:06:32.745Z,-16.69
2022-12-16T20:09:19.925Z,-16.74
2022-12-16T20:12:07.249Z,-16.77
2022-12-16T20:14:56.487Z,-16.81
2022-12-16T20:17:44.001Z,-16.83
2022-12-16T20:20:31.576Z,-16.89
2022-12-16T20:23:18.575Z,-16.90
2022-12-16T20:26:13.867Z,-16.92
2022-12-16T20:29:01.698Z,-16.98
2022-12-16T20:31:49.815Z,-17.01
2022-12-16T20:34:37.095Z,-17.05
2022-12-16T20:37:24.767Z,-17.08
2022-12-16T20:40:12.213Z,-17.10
2022-12-16T20:42:59.810Z,-17.13
2022-12-16T20:45:48.144Z,-17.15
2022-12-16T20:48:35.899Z,-17.11
2022-12-16T20:51:26.915Z,-17.07
2022-12-16T20:54:31.185Z,-17.03
2022-12-16T20:57:18.502Z,-16.97
2022-12-16T21:00:05.940Z,-16.87
2022-12-16T21:02:54.655Z,-16.81
2022-12-16T21:05:43.413Z,-16.75
2022-12-16T21:08:30.704Z,-16.71
2022-12-16T21:11:22.596Z,-16.67
2022-12-16T21:14:09.756Z,-16.67
2022-12-16T21:16:57.209Z,-16.66
2022-12-16T21:19:44.685Z,-16.71
2022-12-16T21:22:31.827Z,-16.73
2022-12-16T21:25:24.322Z,-16.75
2022-12-16T21:28:18.747Z,-16.68
2022-12-16T21:31:06.159Z,-16.60
2022-12-16T21:33:53.417Z,-16.52
2022-12-16T21:36:43.016Z,-16.43
2022-12-16T21:39:30.352Z,-16.39
2022-12-16T21:42:17.527Z,-16.33
2022-12-16T21:45:04.903Z,-16.29
2022-12-16T21:47:52.224Z,-16.33
2022-12-16T21:50:39.341Z,-16.28
2022-12-16T21:53:26.688Z,-16.28
2022-12-16T21:56:15.107Z,-16.29
2022-12-16T21:59:03.006Z,-16.26
2022-12-16T22:01:50.772Z,-16.24
2022-12-16T22:04:39.211Z,-16.18
2022-12-16T22:07:26.692Z,-16.12
2022-12-16T22:10:14.246Z,-16.12
2022-12-16T22:13:01.594Z,-16.04
2022-12-16T22:15:48.964Z,-15.99
2022-12-16T22:18:37.817Z,-15.93
2022-12-16T22:21:25.309Z,-15.86
2022-12-16T22:24:12.866Z,-15.76
2022-12-16T22:27:00.213Z,-15.68
2022-12-16T22:29:47.584Z,-15.59
2022-12-16T22:32:34.882Z,-15.51
2022-12-16T22:35:22.123Z,-15.45
2022-12-16T22:38:09.785Z,-15.42
2022-12-16T22:40:57.284Z,-15.39
2022-12-16T22:43:48.708Z,-15.35
2022-12-16T22:46:36.343Z,-15.37
2022-12-16T22:49:23.690Z,-15.45
2022-12-16T22:52:11.157Z,-15.47
2022-12-16T22:54:58.450Z,-15.40
2022-12-16T22:57:53.580Z,-15.25
2022-12-16T23:00:41.646Z,-15.17
2022-12-16T23:03:34.904Z,-15.07
2022-12-16T23:06:22.619Z,-15.00
2022-12-16T23:09:09.923Z,-14.93
2022-12-16T23:11:59.379Z,-14.85
2022-12-16T23:14:46.888Z,-14.82
2022-12-16T23:17:34.154Z,-14.77
2022-12-16T23:20:21.671Z,-14.72
2022-12-16T23:23:09.222Z,-14.70
2022-12-16T23:25:57.180Z,-14.67
2022-12-16T23:28:45.145Z,-14.62
2022-12-16T23:31:32.730Z,-14.58
2022-12-16T23:34:20.564Z,-14.58
2022-12-16T23:37:07.888Z,-14.56
2022-12-16T23:40:05.880Z,-14.56
2022-12-16T23:42:53.066Z,-14.59
2022-12-16T23:45:43.631Z,-14.62
2022-12-16T23:48:30.977Z,-14.62
2022-12-16T23:51:18.371Z,-14.68
2022-12-16T23:54:07.346Z,-14.62
2022-12-16T23:56:54.693Z,-14.60
2022-12-16T23:59:43.879Z,-14.56
